Time;durP1;ratioP1;P1;durP2;ratioP2;P2;SDS_P1;SDS_P2;PMS_P1;PMS_P2;Temp;Humidity;BMP_temperature;BMP_pressure;BME280_temperature;BME280_humidity;BME280_pressure;Samples;Min_cycle;Max_cycle;Signal;HPM_P1;HPM_P2
2022/07/06 00:01:21;;;;;;;4.53;2.50;;;;;;;13.28;71.10;102487.03;5003699;28;20034;-71
2022/07/06 00:03:47;;;;;;;7.43;2.63;;;;;;;13.28;71.26;102472.22;4999644;28;20044;-71
2022/07/06 00:06:12;;;;;;;5.93;2.30;;;;;;;13.21;71.76;102488.38;4994040;28;20394;-71
2022/07/06 00:08:38;;;;;;;4.60;2.47;;;;;;;13.19;71.56;102491.06;5001425;28;20034;-71
2022/07/06 00:11:04;;;;;;;5.78;2.50;;;;;;;13.22;71.60;102488.25;5000842;28;20071;-72
2022/07/06 00:13:30;;;;;;;6.03;2.50;;;;;;;13.08;71.79;102487.47;4998411;28;20037;-71
2022/07/06 00:15:55;;;;;;;6.13;2.50;;;;;;;13.21;71.57;102493.56;5005042;28;20030;-71
2022/07/06 00:18:21;;;;;;;6.55;2.40;;;;;;;13.20;71.40;102484.91;4993869;28;20041;-73
2022/07/06 00:20:46;;;;;;;6.28;2.30;;;;;;;13.17;71.74;102477.28;4999684;28;20026;-72
2022/07/06 00:23:12;;;;;;;7.00;2.30;;;;;;;12.90;73.42;102479.06;4998283;28;20045;-71
2022/07/06 00:25:37;;;;;;;5.07;2.30;;;;;;;13.02;72.60;102483.50;4990547;28;20026;-70
2022/07/06 00:28:03;;;;;;;4.72;2.45;;;;;;;13.01;72.98;102476.59;5004142;28;20026;-72
2022/07/06 00:30:28;;;;;;;5.20;2.47;;;;;;;13.06;72.09;102484.97;4999591;28;20073;-72
2022/07/06 00:32:54;;;;;;;8.15;2.63;;;;;;;13.05;72.16;102485.91;4997770;28;20458;-73
2022/07/06 00:35:20;;;;;;;4.85;2.28;;;;;;;13.10;71.92;102486.44;4986653;28;20026;-73
2022/07/06 00:37:45;;;;;;;5.88;2.58;;;;;;;13.10;72.07;102486.44;4991878;28;20021;-73
2022/07/06 00:40:11;;;;;;;5.50;2.75;;;;;;;12.95;72.15;102483.06;5004099;28;20034;-71
2022/07/06 00:42:41;;;;;;;4.20;2.55;;;;;;;13.02;72.82;102489.56;5002400;28;20014;-71
2022/07/06 00:45:06;;;;;;;4.75;2.45;;;;;;;13.04;72.21;102481.63;5008044;28;20210;-73
2022/07/06 00:47:32;;;;;;;6.65;2.53;;;;;;;12.99;72.31;102483.69;5008343;28;20525;-72
2022/07/06 00:50:17;;;;;;;5.88;2.58;;;;;;;13.11;72.10;102488.09;4990327;28;20486;-71
2022/07/06 00:52:46;;;;;;;5.80;2.53;;;;;;;12.89;72.05;102478.25;4994180;28;20025;-71
2022/07/06 00:55:13;;;;;;;6.45;2.88;;;;;;;12.88;73.03;102483.56;5009288;28;20037;-74
2022/07/06 00:57:40;;;;;;;6.28;2.60;;;;;;;12.95;73.17;102482.22;5007508;28;20025;-75
2022/07/06 01:00:09;;;;;;;4.55;2.47;;;;;;;12.83;74.16;102473.44;5005742;28;20038;-71
2022/07/06 01:02:36;;;;;;;4.45;2.55;;;;;;;12.92;73.42;102477.22;5002379;28;20054;-71
2022/07/06 01:05:05;;;;;;;5.10;2.58;;;;;;;12.86;73.33;102469.81;5002892;28;20038;-72
2022/07/06 01:07:30;;;;;;;6.18;2.60;;;;;;;12.92;72.82;102477.22;4988603;28;20435;-72
2022/07/06 01:09:56;;;;;;;4.32;2.30;;;;;;;12.95;72.63;102466.59;5000983;28;20036;-71
2022/07/06 01:12:21;;;;;;;6.07;2.60;;;;;;;12.79;73.57;102476.31;5007529;28;20144;-71
2022/07/06 01:14:47;;;;;;;5.05;2.53;;;;;;;12.89;73.57;102483.44;5002401;28;20058;-72
2022/07/06 01:17:13;;;;;;;6.90;2.95;;;;;;;12.80;74.70;102489.28;5007878;28;20026;-71
2022/07/06 01:19:39;;;;;;;6.25;2.65;;;;;;;12.82;73.86;102484.78;5006482;28;20473;-71
2022/07/06 01:22:04;;;;;;;6.72;2.83;;;;;;;12.77;74.90;102474.66;5007990;28;20048;-71
2022/07/06 01:24:30;;;;;;;4.53;2.40;;;;;;;12.76;74.98;102480.81;4992650;28;20026;-71
2022/07/06 01:26:55;;;;;;;6.13;2.50;;;;;;;12.83;74.03;102475.22;4993912;28;20068;-71
2022/07/06 01:29:21;;;;;;;4.60;2.55;;;;;;;12.77;74.65;102473.84;5005635;28;20039;-72
2022/07/06 01:31:48;;;;;;;5.45;2.55;;;;;;;12.61;74.64;102468.78;4989775;28;20033;-71
2022/07/06 01:34:14;;;;;;;5.25;2.72;;;;;;;12.73;74.22;102468.00;4997716;28;20554;-71
2022/07/06 01:36:40;;;;;;;6.07;2.53;;;;;;;12.67;74.43;102468.41;5003818;28;20087;-71
2022/07/06 01:39:08;;;;;;;4.10;2.35;;;;;;;12.67;74.06;102488.38;4991297;28;20422;-71
2022/07/06 01:41:33;;;;;;;5.97;2.70;;;;;;;12.63;75.10;102487.75;5000849;28;20030;-71
2022/07/06 01:43:58;;;;;;;4.80;2.47;;;;;;;12.66;74.90;102471.91;5006566;28;20036;-70
2022/07/06 01:46:23;;;;;;;4.32;2.40;;;;;;;12.73;74.54;102473.22;5007986;28;20481;-71
2022/07/06 01:48:49;;;;;;;4.50;2.38;;;;;;;12.71;74.14;102480.28;4998751;28;20029;-72
2022/07/06 01:51:15;;;;;;;5.10;2.63;;;;;;;12.65;74.85;102485.03;4998407;28;20069;-71
2022/07/06 01:53:40;;;;;;;5.90;2.53;;;;;;;12.64;74.76;102473.78;4992834;28;20022;-71
2022/07/06 01:56:06;;;;;;;6.75;2.80;;;;;;;12.69;74.54;102474.34;4999802;28;20109;-70
2022/07/06 01:58:31;;;;;;;7.15;2.90;;;;;;;12.59;74.51;102470.66;5001135;28;20445;-71
2022/07/06 02:00:57;;;;;;;6.80;2.70;;;;;;;12.65;74.56;102469.41;5005925;28;20801;-72
2022/07/06 02:03:22;;;;;;;5.97;2.80;;;;;;;12.48;74.88;102468.72;4997688;28;20062;-72
2022/07/06 02:05:47;;;;;;;5.60;2.70;;;;;;;12.54;74.38;102454.47;5003536;28;20036;-72
2022/07/06 02:08:13;;;;;;;6.35;2.70;;;;;;;12.68;73.66;102470.06;5006658;28;20482;-71
2022/07/06 02:10:38;;;;;;;5.10;2.60;;;;;;;12.53;74.59;102475.41;5006506;28;20038;-71
2022/07/06 02:13:04;;;;;;;5.55;2.60;;;;;;;12.54;75.06;102467.50;5006923;28;20033;-72
2022/07/06 02:15:29;;;;;;;6.70;2.80;;;;;;;12.59;74.51;102469.81;5003033;28;20351;-71
2022/07/06 02:17:54;;;;;;;5.75;2.50;;;;;;;12.52;74.53;102453.75;5004551;28;20076;-72
2022/07/06 02:20:20;;;;;;;6.28;2.53;;;;;;;12.56;74.38;102475.19;5005154;28;20033;-71
2022/07/06 02:22:45;;;;;;;5.30;2.50;;;;;;;12.63;74.43;102474.72;5004917;28;20029;-71
2022/07/06 02:25:11;;;;;;;4.25;2.42;;;;;;;12.51;75.27;102480.72;4988838;28;20030;-71
2022/07/06 02:27:36;;;;;;;5.18;2.50;;;;;;;12.59;74.46;102481.06;5000196;28;20044;-70
2022/07/06 02:30:02;;;;;;;5.18;2.70;;;;;;;12.47;74.90;102468.81;5005248;28;20029;-71
2022/07/06 02:32:28;;;;;;;4.47;2.55;;;;;;;12.47;74.55;102461.03;5003589;28;20101;-71
2022/07/06 02:34:53;;;;;;;5.25;2.45;;;;;;;12.55;74.83;102484.78;4998321;28;20026;-71
2022/07/06 02:37:19;;;;;;;5.50;2.60;;;;;;;12.56;75.14;102477.81;4991757;28;20057;-71
2022/07/06 02:39:44;;;;;;;4.68;2.60;;;;;;;12.62;74.43;102486.09;5014954;28;20041;-71
2022/07/06 02:42:09;;;;;;;5.18;2.50;;;;;;;12.56;75.64;102476.06;5010462;28;20105;-72
2022/07/06 02:44:35;;;;;;;4.75;2.58;;;;;;;12.36;75.69;102464.28;5004542;28;20034;-71
2022/07/06 02:47:00;;;;;;;5.60;2.65;;;;;;;12.43;76.01;102459.53;5001626;28;20030;-71
2022/07/06 02:49:26;;;;;;;5.60;2.25;;;;;;;12.63;75.63;102474.72;4997393;28;20064;-70
2022/07/06 02:51:51;;;;;;;5.78;2.55;;;;;;;12.61;76.24;102467.94;5004747;28;20435;-71
2022/07/06 02:54:16;;;;;;;4.93;2.55;;;;;;;12.66;75.79;102469.31;4995370;28;20041;-71
2022/07/06 02:56:42;;;;;;;4.03;2.10;;;;;;;12.43;75.67;102433.50;4992122;28;20036;-71
2022/07/06 02:59:07;;;;;;;5.13;2.28;;;;;;;12.64;76.52;102473.78;4994192;28;20079;-74
2022/07/06 03:01:32;;;;;;;5.00;2.17;;;;;;;12.71;75.91;102464.66;5004361;28;20037;-72
2022/07/06 03:03:58;;;;;;;5.72;2.35;;;;;;;12.61;76.08;102457.53;4992032;28;20141;-71
2022/07/06 03:06:23;;;;;;;6.50;2.30;;;;;;;12.77;76.29;102474.66;4998707;28;20045;-71
2022/07/06 03:08:48;;;;;;;6.35;2.40;;;;;;;12.80;76.07;102472.81;4995234;28;20387;-71
2022/07/06 03:11:14;;;;;;;5.43;2.20;;;;;;;12.73;76.85;102468.00;4988488;28;20030;-71
2022/07/06 03:13:39;;;;;;;4.55;2.10;;;;;;;12.77;76.32;102477.28;4988712;28;20048;-71
2022/07/06 03:16:04;;;;;;;4.68;2.40;;;;;;;12.80;75.51;102478.03;4988900;28;20033;-71
2022/07/06 03:18:30;;;;;;;6.45;2.42;;;;;;;12.71;76.41;102475.06;5004389;28;20041;-71
2022/07/06 03:20:55;;;;;;;5.88;2.28;;;;;;;12.77;75.60;102485.09;5002958;28;20021;-71
2022/07/06 03:23:20;;;;;;;5.43;2.30;;;;;;;12.80;75.81;102483.22;4999067;28;20104;-71
2022/07/06 03:25:46;;;;;;;6.50;2.47;;;;;;;12.87;75.24;102489.72;4990260;28;20422;-71
2022/07/06 03:28:12;;;;;;;5.07;2.47;;;;;;;12.79;75.99;102476.31;5008210;28;20128;-73
2022/07/06 03:30:37;;;;;;;6.07;2.20;;;;;;;12.89;75.91;102488.66;5019749;28;20412;-71
2022/07/06 03:33:02;;;;;;;6.63;2.30;;;;;;;12.84;76.14;102484.69;5001635;28;20109;-72
2022/07/06 03:35:28;;;;;;;6.03;2.60;;;;;;;13.00;75.52;102480.16;4997303;28;20023;-71
2022/07/06 03:37:53;;;;;;;5.13;2.78;;;;;;;12.92;76.02;102482.44;4988968;28;20073;-71
2022/07/06 03:40:19;;;;;;;6.38;3.10;;;;;;;12.95;76.79;102492.63;5000772;28;20124;-71
2022/07/06 03:42:44;;;;;;;7.03;2.95;;;;;;;12.98;76.75;102497.66;4993525;28;20359;-73
2022/07/06 03:45:10;;;;;;;8.30;3.40;;;;;;;13.03;76.63;102498.19;4992526;28;20017;-71
2022/07/06 03:47:35;;;;;;;6.53;3.20;;;;;;;12.94;77.28;102501.38;5003055;28;20478;-71
2022/07/06 03:50:00;;;;;;;7.15;3.10;;;;;;;12.96;77.01;102495.16;4991483;28;20416;-73
2022/07/06 03:52:26;;;;;;;6.10;3.20;;;;;;;13.01;76.94;102497.44;5009222;28;20486;-71
2022/07/06 03:54:51;;;;;;;6.57;2.72;;;;;;;12.90;77.33;102486.88;4996041;28;20879;-70
2022/07/06 03:57:16;;;;;;;6.28;3.13;;;;;;;13.04;77.31;102497.25;4993168;28;20108;-70
2022/07/06 03:59:42;;;;;;;5.63;3.10;;;;;;;13.05;77.37;102496.31;4990267;28;20077;-71
2022/07/06 04:02:07;;;;;;;6.15;2.53;;;;;;;12.95;77.59;102482.22;4996661;28;20490;-71
2022/07/06 04:04:35;;;;;;;5.30;2.53;;;;;;;12.87;78.31;102489.72;4996329;28;20026;-71
2022/07/06 04:07:01;;;;;;;5.47;2.25;;;;;;;12.85;76.75;102481.16;4999502;28;20061;-72
2022/07/06 04:09:26;;;;;;;5.63;2.05;;;;;;;13.00;76.16;102490.56;4999509;28;20134;-72
2022/07/06 04:11:52;;;;;;;5.97;2.72;;;;;;;13.00;76.16;102490.56;4997063;28;20061;-71
2022/07/06 04:14:17;;;;;;;4.57;2.30;;;;;;;13.00;76.97;102491.41;4998998;28;20424;-72
2022/07/06 04:16:43;;;;;;;4.18;2.03;;;;;;;13.00;76.85;102486.19;4995790;28;20034;-72
2022/07/06 04:19:08;;;;;;;4.85;2.22;;;;;;;13.07;77.01;102480.59;4989948;28;20037;-68
2022/07/06 04:21:34;;;;;;;6.10;2.30;;;;;;;13.06;77.06;102484.97;4994517;28;20054;-71
2022/07/06 04:23:59;;;;;;;4.65;2.28;;;;;;;13.09;76.92;102489.97;5004668;28;20033;-71
2022/07/06 04:26:25;;;;;;;5.32;2.30;;;;;;;13.16;76.65;102480.81;4992016;28;20513;-71
2022/07/06 04:28:50;;;;;;;6.85;2.65;;;;;;;13.15;76.60;102484.38;5003101;28;20449;-71
2022/07/06 04:31:15;;;;;;;5.18;2.20;;;;;;;13.13;76.71;102490.59;5001565;28;20034;-70
2022/07/06 04:33:42;;;;;;;6.15;2.90;;;;;;;13.21;76.10;102491.81;4998927;28;20022;-70
2022/07/06 04:36:08;;;;;;;6.72;2.97;;;;;;;13.22;76.53;102475.22;5005324;28;20509;-73
2022/07/06 04:38:34;;;;;;;5.53;3.35;;;;;;;13.24;76.89;102482.94;5003366;28;20026;-72
2022/07/06 04:40:59;;;;;;;7.88;3.75;;;;;;;13.21;77.47;102478.78;4993872;28;20042;-72
2022/07/06 04:43:24;;;;;;;5.55;3.50;;;;;;;13.19;78.03;102480.63;4994882;28;20029;-71
2022/07/06 04:45:50;;;;;;;6.32;3.55;;;;;;;13.32;77.28;102479.84;5002581;28;20153;-72
2022/07/06 04:48:15;;;;;;;6.40;3.35;;;;;;;13.21;78.27;102484.00;5003160;28;20493;-73
2022/07/06 04:50:40;;;;;;;5.97;3.20;;;;;;;13.12;77.99;102479.34;4998843;28;20534;-71
2022/07/06 04:53:06;;;;;;;4.95;2.97;;;;;;;13.16;77.94;102470.41;4990710;28;20058;-73
2022/07/06 04:55:31;;;;;;;5.70;3.03;;;;;;;13.23;77.33;102479.50;4994854;28;20026;-71
2022/07/06 04:57:57;;;;;;;5.25;2.75;;;;;;;13.26;77.08;102476.72;5002092;28;20054;-72
2022/07/06 05:00:22;;;;;;;6.25;2.83;;;;;;;13.25;77.41;102469.00;5014137;28;20033;-72
2022/07/06 05:02:48;;;;;;;6.22;3.10;;;;;;;13.33;76.79;102481.50;5007418;28;20499;-71
2022/07/06 05:05:13;;;;;;;7.10;3.58;;;;;;;13.29;78.53;102486.06;5017563;28;21397;-75
2022/07/06 05:07:41;;;;;;;5.60;3.83;;;;;;;13.29;77.83;102475.66;5020682;28;20073;-72
2022/07/06 05:10:11;;;;;;;7.00;4.00;;;;;;;13.33;78.81;102495.38;4997529;28;20033;-70
2022/07/06 05:12:37;;;;;;;7.25;4.30;;;;;;;13.41;77.48;102490.47;4997857;28;20473;-71
2022/07/06 05:15:03;;;;;;;5.18;3.80;;;;;;;13.51;78.60;102496.72;4992303;28;20030;-71
2022/07/06 05:17:28;;;;;;;7.20;4.10;;;;;;;13.54;78.78;102493.09;4999746;28;20034;-71
2022/07/06 05:19:54;;;;;;;7.10;3.50;;;;;;;13.49;77.48;102476.94;4998097;28;20437;-71
2022/07/06 05:22:19;;;;;;;7.57;3.55;;;;;;;13.66;77.17;102494.88;4998475;28;20030;-71
2022/07/06 05:24:45;;;;;;;6.72;3.00;;;;;;;13.59;77.40;102495.38;5020263;28;20026;-72
2022/07/06 05:27:10;;;;;;;5.38;2.90;;;;;;;13.72;76.68;102499.69;5000914;28;20029;-70
2022/07/06 05:29:36;;;;;;;4.53;2.63;;;;;;;13.80;77.13;102505.19;5004495;28;20753;-71
2022/07/06 05:32:02;;;;;;;4.07;2.10;;;;;;;13.87;76.19;102499.53;4990063;28;20034;-71
2022/07/06 05:34:27;;;;;;;4.90;2.13;;;;;;;13.86;75.67;102490.06;4993601;28;20025;-72
2022/07/06 05:36:52;;;;;;;4.57;2.28;;;;;;;14.04;75.29;102499.22;4993224;28;20033;-71
2022/07/06 05:39:21;;;;;;;4.60;2.00;;;;;;;13.97;74.72;102487.53;4999613;28;20018;-71
2022/07/06 05:41:47;;;;;;;5.63;2.13;;;;;;;14.14;74.72;102495.03;4999858;28;20038;-71
2022/07/06 05:44:12;;;;;;;4.00;1.90;;;;;;;14.10;73.99;102506.63;4997968;28;20029;-71
2022/07/06 05:46:38;;;;;;;4.18;1.85;;;;;;;14.15;74.15;102504.53;5000489;28;20541;-72
2022/07/06 05:51:47;;;;;;;4.97;2.00;;;;;;;14.28;74.47;102502.75;4991760;28;20092;-71
2022/07/06 05:54:12;;;;;;;4.93;1.80;;;;;;;14.28;73.04;102507.97;4995858;28;20454;-71
2022/07/06 05:56:38;;;;;;;4.13;2.00;;;;;;;14.30;73.38;102500.84;4998812;28;20628;-72
2022/07/06 05:59:04;;;;;;;5.05;1.92;;;;;;;14.23;74.05;102494.41;5005551;28;20034;-71
2022/07/06 06:01:29;;;;;;;5.35;1.98;;;;;;;14.34;73.53;102509.31;4995002;28;20026;-71
2022/07/06 06:03:54;;;;;;;4.32;1.90;;;;;;;14.28;73.09;102492.28;5000902;28;20049;-71
2022/07/06 06:06:20;;;;;;;4.78;1.70;;;;;;;14.31;72.64;102512.94;5008001;28;20030;-71
2022/07/06 06:08:45;;;;;;;4.55;1.90;;;;;;;14.30;73.30;102510.44;5002172;28;20041;-71
2022/07/06 06:11:11;;;;;;;5.22;1.92;;;;;;;14.33;72.97;102516.28;4997324;28;20488;-72
2022/07/06 06:13:36;;;;;;;3.00;1.48;;;;;;;14.45;73.10;102504.16;5002842;28;20521;-72
2022/07/06 06:16:01;;;;;;;4.72;2.00;;;;;;;14.45;72.98;102498.94;4995871;28;20038;-72
2022/07/06 06:18:27;;;;;;;3.78;1.70;;;;;;;14.67;73.16;102508.69;4997979;28;20026;-73
2022/07/06 06:20:53;;;;;;;4.72;1.65;;;;;;;14.68;72.38;102510.38;4992904;28;20034;-71
2022/07/06 06:23:18;;;;;;;4.68;1.50;;;;;;;14.61;72.55;102498.69;4998843;28;20038;-71
2022/07/06 06:25:44;;;;;;;3.50;1.60;;;;;;;14.71;71.48;102520.59;4993575;28;20104;-72
2022/07/06 06:28:10;;;;;;;3.70;1.40;;;;;;;14.76;71.23;102521.09;4991510;28;20373;-70
2022/07/06 06:30:37;;;;;;;4.20;1.40;;;;;;;14.73;71.81;102518.69;4995062;28;20022;-71
2022/07/06 06:33:13;;;;;;;5.07;1.58;;;;;;;14.82;71.60;102512.81;4998507;28;20030;-72
2022/07/06 06:35:44;;;;;;;3.20;1.50;;;;;;;14.79;71.68;102520.84;5016573;28;20034;-71
2022/07/06 06:38:10;;;;;;;3.83;1.40;;;;;;;14.90;71.17;102503.56;4990791;28;20370;-72
2022/07/06 06:40:35;;;;;;;6.00;1.30;;;;;;;14.91;70.33;102510.44;5003737;28;20029;-71
2022/07/06 06:43:01;;;;;;;4.05;1.20;;;;;;;14.95;71.59;102517.13;5003926;28;20029;-71
2022/07/06 06:45:26;;;;;;;3.50;1.20;;;;;;;14.96;70.65;102518.78;5007142;28;20032;-71
2022/07/06 06:47:51;;;;;;;1.98;1.00;;;;;;;15.02;71.13;102518.34;5006791;28;20116;-71
2022/07/06 06:50:17;;;;;;;5.18;1.38;;;;;;;15.04;70.22;102516.47;4992527;28;20413;-72
2022/07/06 06:52:42;;;;;;;3.95;1.15;;;;;;;15.06;71.00;102514.56;5007280;28;20029;-72
2022/07/06 06:55:08;;;;;;;3.08;1.00;;;;;;;15.13;69.50;102513.16;5004151;28;20041;-71
2022/07/06 06:57:34;;;;;;;4.60;1.30;;;;;;;15.25;70.25;102527.94;4998670;28;20418;-72
2022/07/06 06:59:59;;;;;;;3.58;1.10;;;;;;;15.26;68.39;102524.38;4997441;28;20057;-71
2022/07/06 07:02:24;;;;;;;2.80;1.02;;;;;;;15.21;67.73;102513.44;5000097;28;20072;-71
2022/07/06 07:04:50;;;;;;;4.70;1.33;;;;;;;15.25;66.72;102525.31;5006435;28;20030;-71
2022/07/06 07:07:15;;;;;;;4.05;1.20;;;;;;;15.38;67.78;102526.09;5005657;28;20026;-71
2022/07/06 07:09:40;;;;;;;5.18;1.40;;;;;;;15.46;68.78;102527.28;5005658;28;20575;-71
2022/07/06 07:12:06;;;;;;;4.88;1.20;;;;;;;15.39;67.39;102521.69;4995412;28;20034;-72
2022/07/06 07:14:31;;;;;;;4.40;1.20;;;;;;;15.56;68.29;102526.47;5003569;28;20044;-71
2022/07/06 07:16:57;;;;;;;5.10;1.25;;;;;;;15.68;67.02;102519.50;4995862;28;20152;-71
2022/07/06 07:19:23;;;;;;;4.20;1.25;;;;;;;15.76;67.19;102524.97;5001969;28;20033;-71
2022/07/06 07:21:48;;;;;;;5.13;1.27;;;;;;;15.80;67.21;102526.41;5006931;28;20474;-71
2022/07/06 07:24:13;;;;;;;4.80;1.20;;;;;;;15.70;68.25;102520.22;5004549;28;20087;-73
2022/07/06 07:26:39;;;;;;;3.70;1.20;;;;;;;15.78;67.11;102520.47;4999761;28;20034;-71
2022/07/06 07:29:04;;;;;;;3.85;1.15;;;;;;;15.92;67.54;102535.94;4999207;28;20045;-71
2022/07/06 07:31:30;;;;;;;4.70;1.42;;;;;;;15.82;66.23;102534.97;5004612;28;20032;-72
2022/07/06 07:33:56;;;;;;;5.82;1.33;;;;;;;15.92;66.12;102535.94;5005654;28;20100;-71
2022/07/06 07:36:23;;;;;;;6.28;1.40;;;;;;;15.97;65.54;102540.81;4991432;28;20172;-71
2022/07/06 07:38:49;;;;;;;5.15;1.27;;;;;;;15.98;65.81;102546.88;5006017;28;20458;-72
2022/07/06 07:41:16;;;;;;;6.03;1.00;;;;;;;16.01;66.12;102533.59;5005027;28;20466;-72
2022/07/06 07:43:42;;;;;;;5.90;1.08;;;;;;;15.97;65.87;102526.91;4996903;28;20467;-72
2022/07/06 07:46:07;;;;;;;5.97;1.38;;;;;;;16.08;66.41;102529.53;4999875;28;20037;-72
2022/07/06 07:48:32;;;;;;;4.20;1.13;;;;;;;16.10;64.94;102522.38;4991669;28;20033;-72
2022/07/06 07:50:58;;;;;;;4.07;1.10;;;;;;;16.28;67.00;102535.81;4996522;28;20304;-71
2022/07/06 07:53:23;;;;;;;5.32;1.02;;;;;;;16.43;65.30;102532.81;4995669;28;20097;-71
2022/07/06 07:55:48;;;;;;;4.30;1.15;;;;;;;16.45;62.82;102538.75;4991191;28;20049;-71
2022/07/06 07:58:14;;;;;;;4.50;1.05;;;;;;;16.42;62.54;102539.03;5000907;28;20473;-71
2022/07/06 08:00:39;;;;;;;4.78;1.15;;;;;;;16.40;61.25;102540.94;4991902;28;20112;-72
2022/07/06 08:03:05;;;;;;;5.63;1.17;;;;;;;16.49;61.46;102530.66;4999461;28;20042;-71
2022/07/06 08:05:30;;;;;;;6.15;1.25;;;;;;;16.57;61.59;102525.63;4992142;28;20018;-72
2022/07/06 08:07:56;;;;;;;3.47;1.10;;;;;;;16.66;60.23;102530.16;4994673;28;20034;-71
2022/07/06 08:10:21;;;;;;;5.15;1.00;;;;;;;16.72;58.83;102529.69;4995895;28;20597;-71
2022/07/06 08:12:46;;;;;;;6.45;1.20;;;;;;;16.75;59.14;102528.63;4999290;28;20873;-71
2022/07/06 08:15:12;;;;;;;5.30;1.13;;;;;;;16.97;60.25;102521.53;5000751;28;20065;-72
2022/07/06 08:17:39;;;;;;;3.92;1.20;;;;;;;17.17;60.21;102534.78;4992636;28;20033;-72
2022/07/06 08:20:05;;;;;;;3.50;0.85;;;;;;;17.24;58.03;102530.69;5002295;28;20101;-72
2022/07/06 08:22:30;;;;;;;4.13;1.08;;;;;;;17.20;56.87;102534.50;4996745;28;20466;-72
2022/07/06 08:24:56;;;;;;;6.13;0.98;;;;;;;17.20;57.05;102530.13;5004960;28;20029;-71
2022/07/06 08:27:21;;;;;;;4.25;1.10;;;;;;;17.19;55.78;102522.34;4992855;28;20537;-72
2022/07/06 08:29:47;;;;;;;5.65;1.10;;;;;;;17.37;54.26;102520.81;4990938;28;20030;-71
2022/07/06 08:32:12;;;;;;;3.75;1.10;;;;;;;17.55;56.03;102528.09;4988871;28;20062;-71
2022/07/06 08:34:38;;;;;;;4.28;0.90;;;;;;;17.55;55.86;102513.22;4989141;28;20034;-72
2022/07/06 08:37:03;;;;;;;5.13;1.25;;;;;;;17.43;54.06;102520.34;4997801;28;20459;-72
2022/07/06 08:39:29;;;;;;;4.35;0.70;;;;;;;17.49;54.51;102509.31;4985969;28;20023;-71
2022/07/06 08:41:56;;;;;;;2.85;0.85;;;;;;;17.90;56.81;102515.50;5000914;28;20076;-72
2022/07/06 08:44:23;;;;;;;2.92;0.80;;;;;;;17.92;54.74;102515.34;4992318;28;20031;-71
2022/07/06 08:46:51;;;;;;;4.15;0.80;;;;;;;17.93;54.77;102511.75;4989780;28;20050;-72
2022/07/06 08:49:17;;;;;;;2.50;0.77;;;;;;;17.81;52.92;102516.28;4989934;28;20041;-71
2022/07/06 08:51:42;;;;;;;2.85;0.70;;;;;;;17.85;53.55;102509.81;5004615;28;20033;-72
2022/07/06 08:54:10;;;;;;;2.70;0.70;;;;;;;18.08;54.77;102520.13;5015976;28;20045;-72
2022/07/06 08:56:36;;;;;;;2.83;0.80;;;;;;;18.23;54.48;102521.41;5002856;28;20040;-72
2022/07/06 08:59:01;;;;;;;3.85;1.00;;;;;;;18.11;54.15;102504.09;5004179;28;20029;-73
2022/07/06 09:01:27;;;;;;;2.13;0.75;;;;;;;18.15;51.53;102510.75;4997170;28;20516;-72
2022/07/06 09:03:54;;;;;;;3.95;0.70;;;;;;;18.22;50.69;102509.22;4990568;28;20053;-72
2022/07/06 09:06:24;;;;;;;2.13;0.57;;;;;;;18.27;51.17;102515.75;5002212;28;20399;-72
2022/07/06 09:08:52;;;;;;;1.92;0.80;;;;;;;18.23;50.27;102516.16;5002450;28;20037;-71
2022/07/06 09:11:17;;;;;;;2.53;0.70;;;;;;;18.21;49.09;102520.72;4997526;28;20332;-71
2022/07/06 09:13:43;;;;;;;3.17;0.70;;;;;;;18.28;50.11;102511.31;5007816;28;20048;-71
2022/07/06 09:16:10;;;;;;;3.42;1.08;;;;;;;18.30;53.30;102509.41;4994471;28;20030;-72
2022/07/06 09:18:38;;;;;;;3.08;0.80;;;;;;;18.65;53.79;102514.16;5005645;28;20470;-72
2022/07/06 09:21:04;;;;;;;3.28;0.70;;;;;;;18.50;50.67;102511.09;4998960;28;20057;-73
2022/07/06 09:23:30;;;;;;;3.13;0.80;;;;;;;18.35;48.88;102512.47;5000880;28;20038;-71
2022/07/06 09:25:55;;;;;;;2.72;0.80;;;;;;;18.34;50.55;102505.53;5003122;28;20034;-71
2022/07/06 09:28:21;;;;;;;3.90;0.70;;;;;;;18.53;51.92;102518.72;5003774;28;20050;-71
2022/07/06 09:30:46;;;;;;;4.43;0.90;;;;;;;18.55;50.60;102508.88;4997961;28;20044;-71
2022/07/06 09:33:17;;;;;;;2.88;0.90;;;;;;;18.60;50.77;102516.38;5002157;28;20033;-73
2022/07/06 09:35:45;;;;;;;3.00;0.90;;;;;;;18.89;53.55;102516.41;4995747;28;20112;-71
2022/07/06 09:38:15;;;;;;;4.15;1.00;;;;;;;18.97;50.68;102513.91;5002407;28;20037;-72
2022/07/06 09:40:46;;;;;;;4.78;0.90;;;;;;;19.18;50.98;102520.84;4999197;28;20034;-71
2022/07/06 09:43:21;;;;;;;3.92;0.90;;;;;;;19.33;51.81;102509.75;5016016;28;20382;-72
2022/07/06 09:45:49;;;;;;;3.70;0.90;;;;;;;19.18;49.89;102516.41;5005389;28;20488;-72
2022/07/06 09:48:21;;;;;;;3.40;1.00;;;;;;;19.19;49.09;102522.50;4999090;28;20113;-72
2022/07/06 09:50:53;;;;;;;1.77;0.70;;;;;;;19.22;50.27;102522.22;5003328;28;20735;-72
2022/07/06 09:53:19;;;;;;;2.65;0.90;;;;;;;18.95;49.45;102521.13;4998426;28;20537;-72
2022/07/06 09:55:50;;;;;;;3.67;0.85;;;;;;;18.87;49.82;102521.00;5006561;28;20029;-71
2022/07/06 09:58:20;;;;;;;4.18;0.93;;;;;;;19.25;50.40;102516.66;5005920;28;20087;-72
2022/07/06 10:00:47;;;;;;;3.13;0.70;;;;;;;19.34;48.42;102526.34;5004934;28;20014;-72
2022/07/06 10:03:15;;;;;;;3.70;1.00;;;;;;;19.44;48.96;102516.66;5005420;28;20446;-72
2022/07/06 10:05:43;;;;;;;4.40;1.00;;;;;;;19.52;47.19;102524.66;4995020;28;20069;-72
2022/07/06 10:08:09;;;;;;;2.72;0.75;;;;;;;19.73;50.00;102521.88;5012312;28;20112;-72
2022/07/06 10:10:36;;;;;;;3.28;0.88;;;;;;;19.46;47.38;102512.06;5010290;28;20034;-71
2022/07/06 10:13:03;;;;;;;3.35;0.70;;;;;;;19.46;47.48;102530.50;5007079;28;20037;-72
2022/07/06 10:15:33;;;;;;;4.03;0.82;;;;;;;19.22;47.91;102516.97;4996165;28;20536;-72
2022/07/06 10:18:00;;;;;;;3.13;0.73;;;;;;;19.28;47.54;102537.44;4991313;28;20056;-72
2022/07/06 10:20:31;;;;;;;4.10;1.08;;;;;;;19.29;48.96;102528.56;4993386;28;20037;-73
2022/07/06 10:22:59;;;;;;;2.30;0.90;;;;;;;19.54;49.47;102535.84;4995231;28;20040;-72
2022/07/06 10:25:25;;;;;;;2.67;0.95;;;;;;;19.52;49.39;102540.44;4995160;28;20073;-72
2022/07/06 10:27:52;;;;;;;2.70;0.80;;;;;;;19.55;48.73;102540.16;4998739;28;20105;-72
2022/07/06 10:30:18;;;;;;;4.47;0.88;;;;;;;19.45;47.82;102528.84;4998593;28;20019;-73
2022/07/06 10:32:47;;;;;;;2.05;0.80;;;;;;;19.56;47.51;102531.31;4994793;28;20049;-73
2022/07/06 10:35:14;;;;;;;3.28;0.68;;;;;;;19.61;48.13;102534.38;4995631;28;20071;-72
2022/07/06 10:37:40;;;;;;;3.70;1.00;;;;;;;19.43;48.96;102522.84;4994630;28;20050;-72
2022/07/06 10:43:00;;;;;;;3.95;0.85;;;;;;;19.54;48.73;102527.97;5004950;28;20117;-72
2022/07/06 10:45:28;;;;;;;2.08;0.80;;;;;;;19.62;48.03;102520.22;5000571;28;20042;-73
2022/07/06 10:48:11;;;;;;;3.42;0.70;;;;;;;19.57;47.74;102517.16;5006372;28;20576;-72
2022/07/06 10:50:37;;;;;;;2.20;0.60;;;;;;;19.90;47.68;102515.00;4999399;28;20050;-72
2022/07/06 10:53:10;;;;;;;2.00;0.65;;;;;;;19.97;47.63;102517.88;5001125;28;20057;-72
2022/07/06 10:55:39;;;;;;;2.42;0.73;;;;;;;19.83;46.75;102517.38;4992039;28;20022;-72
2022/07/06 10:58:05;;;;;;;2.47;0.80;;;;;;;19.83;45.72;102517.38;5002950;28;20470;-72
2022/07/06 11:00:54;;;;;;;3.30;0.77;;;;;;;19.94;48.06;102512.91;4992341;28;20026;-73
2022/07/06 11:03:34;;;;;;;2.35;0.80;;;;;;;19.85;46.90;102519.88;5003193;28;20399;-72
2022/07/06 11:06:09;;;;;;;3.08;1.05;;;;;;;20.00;48.06;102522.84;4992229;28;20034;-73
2022/07/06 11:08:48;;;;;;;3.58;0.90;;;;;;;19.95;47.04;102514.56;4994065;28;20049;-73
2022/07/06 11:11:19;;;;;;;2.65;0.80;;;;;;;19.95;47.14;102515.38;5017196;28;20040;-73
2022/07/06 11:14:13;;;;;;;2.75;0.80;;;;;;;20.01;46.56;102514.78;4994810;28;20026;-72
2022/07/06 11:16:43;;;;;;;3.45;0.82;;;;;;;20.28;47.39;102506.06;4995823;28;20076;-73
2022/07/06 11:19:09;;;;;;;2.75;0.80;;;;;;;20.27;45.80;102514.13;5001282;28;20091;-74
2022/07/06 11:21:48;;;;;;;1.08;0.55;;;;;;;20.32;47.71;102517.16;5003056;28;20026;-73
2022/07/06 11:24:22;;;;;;;1.25;0.52;;;;;;;20.27;44.93;102514.13;4993767;28;20030;-72
2022/07/06 11:26:50;;;;;;;1.60;0.77;;;;;;;20.04;43.70;102503.97;4993723;28;20060;-73